Time;durP1;ratioP1;P1;durP2;ratioP2;P2;SDS_P1;SDS_P2;PMS_P1;PMS_P2;Temp;Humidity;BMP_temperature;BMP_pressure;BME280_temperature;BME280_humidity;BME280_pressure;Samples;Min_cycle;Max_cycle;Signal;HPM_P1;HPM_P2
2023/01/23 00:00:14;;;;;;;1.70;1.60;;;;;;;9.29;100.00;101852.72;5028856;28;20068;-83
2023/01/23 00:02:40;;;;;;;2.22;1.58;;;;;;;9.28;100.00;101850.19;5043039;28;20032;-83
2023/01/23 00:05:07;;;;;;;1.65;1.55;;;;;;;9.26;100.00;101847.66;5068046;28;20028;-81
2023/01/23 00:07:32;;;;;;;1.80;1.50;;;;;;;9.27;100.00;101859.88;5059414;28;20033;-82
2023/01/23 00:09:58;;;;;;;2.55;1.50;;;;;;;9.28;100.00;101863.38;5047694;28;20037;-81
2023/01/23 00:12:24;;;;;;;1.23;1.20;;;;;;;9.27;100.00;101869.59;5044285;28;20041;-81
2023/01/23 00:14:50;;;;;;;1.77;1.67;;;;;;;9.28;100.00;101869.50;5055809;28;20115;-81
2023/01/23 00:17:15;;;;;;;1.33;1.23;;;;;;;9.32;100.00;101883.31;5033193;28;20110;-81
2023/01/23 00:19:41;;;;;;;1.40;1.30;;;;;;;9.33;100.00;101874.47;5042123;28;20025;-81
2023/01/23 00:22:07;;;;;;;1.63;1.40;;;;;;;9.34;100.00;101862.97;5037253;28;20048;-81
2023/01/23 00:24:33;;;;;;;1.25;1.15;;;;;;;9.33;100.00;101869.19;5045735;28;20029;-81
2023/01/23 00:26:58;;;;;;;1.50;1.40;;;;;;;9.34;100.00;101867.38;5053905;28;20123;-81
2023/01/23 00:29:24;;;;;;;1.67;1.10;;;;;;;9.35;100.00;101867.28;5045720;28;20051;-81
2023/01/23 00:31:50;;;;;;;1.25;1.13;;;;;;;9.33;100.00;101869.19;5018658;28;20042;-82
2023/01/23 00:34:16;;;;;;;1.38;1.20;;;;;;;9.35;100.00;101869.09;5049273;28;20468;-82
2023/01/23 00:36:43;;;;;;;1.95;1.55;;;;;;;9.35;100.00;101869.94;5035592;28;20064;-81
2023/01/23 00:39:16;;;;;;;1.00;1.00;;;;;;;9.38;100.00;101875.00;5061424;28;20032;-83
2023/01/23 00:41:47;;;;;;;1.17;1.08;;;;;;;9.37;100.00;101881.25;5008091;28;20033;-83
2023/01/23 00:44:13;;;;;;;1.30;1.20;;;;;;;9.36;100.00;101878.69;5060378;28;20049;-82
2023/01/23 00:46:39;;;;;;;0.90;0.90;;;;;;;9.35;100.00;101875.19;5059246;28;20455;-81
2023/01/23 00:49:05;;;;;;;0.90;0.90;;;;;;;9.39;100.00;101886.41;5068014;28;20068;-82
2023/01/23 00:51:31;;;;;;;0.85;0.80;;;;;;;9.42;100.00;101891.50;5067393;28;20033;-82
2023/01/23 00:53:57;;;;;;;0.80;0.80;;;;;;;9.41;100.00;101893.28;5051604;28;20028;-82
2023/01/23 00:56:23;;;;;;;1.50;0.90;;;;;;;9.43;100.00;101893.16;5050411;28;20029;-82
2023/01/23 00:58:49;;;;;;;0.75;0.75;;;;;;;9.45;100.00;101891.28;5036095;28;20032;-83
2023/01/23 01:01:16;;;;;;;0.95;0.70;;;;;;;9.45;100.00;101888.66;5033956;28;20029;-83
2023/01/23 01:03:42;;;;;;;0.75;0.75;;;;;;;9.46;100.00;101884.22;5051706;28;20067;-82
2023/01/23 01:06:08;;;;;;;1.88;1.00;;;;;;;9.44;100.00;101884.31;5055355;28;20082;-81
2023/01/23 01:08:34;;;;;;;0.70;0.70;;;;;;;9.44;100.00;101889.59;5051838;28;20041;-81
2023/01/23 01:11:00;;;;;;;0.60;0.60;;;;;;;9.45;100.00;101893.94;5054793;28;20032;-81
2023/01/23 01:13:26;;;;;;;0.70;0.70;;;;;;;9.44;100.00;101884.31;5043812;28;20495;-81
2023/01/23 01:15:53;;;;;;;1.73;0.77;;;;;;;9.44;100.00;101884.31;5056776;28;20469;-81
2023/01/23 01:18:21;;;;;;;0.60;0.60;;;;;;;9.42;100.00;101889.69;5045588;28;20033;-81
2023/01/23 01:20:47;;;;;;;0.90;0.80;;;;;;;9.42;100.00;101883.56;5045000;28;20143;-81
2023/01/23 01:23:13;;;;;;;0.82;0.70;;;;;;;9.43;100.00;101887.88;5035908;28;20045;-81
2023/01/23 01:25:39;;;;;;;0.98;0.70;;;;;;;9.43;100.00;101895.81;5029512;28;20600;-81
2023/01/23 01:28:06;;;;;;;0.70;0.70;;;;;;;9.42;100.00;101894.13;5012284;28;20040;-81
2023/01/23 01:30:31;;;;;;;0.95;0.80;;;;;;;9.43;100.00;101895.81;5049171;28;20115;-81
2023/01/23 01:32:58;;;;;;;0.63;0.63;;;;;;;9.43;100.00;101893.16;5019705;28;20039;-81
2023/01/23 01:35:24;;;;;;;1.05;0.95;;;;;;;9.45;100.00;101893.94;5019439;28;20444;-81
2023/01/23 01:37:50;;;;;;;0.77;0.75;;;;;;;9.44;100.00;101884.31;5032123;28;20056;-81
2023/01/23 01:40:19;;;;;;;0.70;0.70;;;;;;;9.45;100.00;101879.88;5084602;28;20492;-81
2023/01/23 01:42:57;;;;;;;0.70;0.70;;;;;;;9.45;100.00;101880.72;5050204;28;20048;-81
2023/01/23 01:45:55;;;;;;;1.10;0.77;;;;;;;9.44;100.00;101879.03;5057270;28;20043;-81
2023/01/23 01:48:25;;;;;;;0.73;0.73;;;;;;;9.40;100.00;101877.53;5040750;28;20117;-81
2023/01/23 01:50:52;;;;;;;0.90;0.90;;;;;;;9.38;100.00;101882.91;5034189;28;20056;-81
2023/01/23 01:53:21;;;;;;;0.65;0.65;;;;;;;9.37;100.00;101883.88;5038665;28;20503;-81
2023/01/23 01:55:47;;;;;;;0.70;0.70;;;;;;;9.37;100.00;101885.66;5067539;28;20037;-82
2023/01/23 01:58:13;;;;;;;0.73;0.73;;;;;;;9.35;100.00;101883.13;5049726;28;20032;-81
2023/01/23 02:00:39;;;;;;;2.38;0.80;;;;;;;9.35;100.00;101883.13;5040190;28;20495;-81
2023/01/23 02:03:05;;;;;;;0.95;0.50;;;;;;;9.34;100.00;101883.22;5053731;28;20044;-81
2023/01/23 02:05:41;;;;;;;0.70;0.70;;;;;;;9.37;100.00;101883.03;5074477;28;20043;-82
2023/01/23 02:08:30;;;;;;;1.00;0.80;;;;;;;9.36;100.00;101883.97;5034103;28;20033;-81
2023/01/23 02:11:00;;;;;;;0.60;0.60;;;;;;;9.33;100.00;101884.19;5045696;28;20024;-81
2023/01/23 02:13:35;;;;;;;0.70;0.70;;;;;;;9.34;100.00;101893.78;5036746;28;20025;-81
2023/01/23 02:16:05;;;;;;;0.90;0.80;;;;;;;9.32;100.00;101885.97;5050542;28;20036;-81
2023/01/23 02:18:34;;;;;;;5.45;0.88;;;;;;;9.31;100.00;101884.28;5049832;28;20037;-81
2023/01/23 02:21:06;;;;;;;0.47;0.47;;;;;;;9.32;100.00;101885.13;5074196;28;20023;-81
2023/01/23 02:24:10;;;;;;;0.70;0.70;;;;;;;9.33;100.00;101886.81;5036160;28;20484;-81
2023/01/23 02:26:40;;;;;;;0.68;0.68;;;;;;;9.27;100.00;101885.44;5036342;28;20405;-80
2023/01/23 02:29:07;;;;;;;1.02;1.02;;;;;;;9.28;100.00;101887.97;5030873;28;20120;-81
2023/01/23 02:31:44;;;;;;;0.98;0.70;;;;;;;9.27;100.00;101894.19;5026085;28;20041;-81
2023/01/23 02:34:12;;;;;;;0.95;0.73;;;;;;;9.30;100.00;101896.63;5030820;28;20036;-81
2023/01/23 02:36:43;;;;;;;0.70;0.70;;;;;;;9.32;100.00;101895.69;5016442;28;20032;-81
2023/01/23 02:39:18;;;;;;;0.90;0.90;;;;;;;9.33;100.00;101892.09;5045863;28;20040;-81
2023/01/23 02:41:50;;;;;;;1.30;1.00;;;;;;;9.32;100.00;101882.50;5051895;28;20036;-81
2023/01/23 02:44:32;;;;;;;2.95;1.00;;;;;;;9.35;100.00;101890.22;5034824;28;20041;-81
2023/01/23 02:47:10;;;;;;;0.98;0.93;;;;;;;9.34;100.00;101888.50;5044984;28;20064;-81
2023/01/23 02:49:36;;;;;;;0.95;0.80;;;;;;;9.30;100.00;101886.06;5036424;28;20036;-81
2023/01/23 02:52:05;;;;;;;2.15;0.80;;;;;;;9.33;100.00;101887.66;5034391;28;20716;-81
2023/01/23 02:54:31;;;;;;;3.17;0.95;;;;;;;9.32;100.00;101891.25;5044985;28;20663;-83
2023/01/23 02:56:57;;;;;;;1.10;1.00;;;;;;;9.33;100.00;101894.72;5040873;28;20446;-83
2023/01/23 03:02:08;;;;;;;3.67;0.98;;;;;;;9.33;100.00;101895.59;5045989;28;20056;-81
2023/01/23 03:04:34;;;;;;;1.50;0.95;;;;;;;9.33;100.00;101900.88;5043928;28;20045;-81
2023/01/23 03:07:00;;;;;;;1.77;1.00;;;;;;;9.35;100.00;101900.75;5042777;28;20043;-81
2023/01/23 03:09:26;;;;;;;0.95;0.95;;;;;;;9.35;100.00;101903.41;5041427;28;20033;-81
2023/01/23 03:11:52;;;;;;;0.88;0.80;;;;;;;9.35;100.00;101904.22;5042775;28;20037;-81
2023/01/23 03:14:23;;;;;;;1.98;1.02;;;;;;;9.37;100.00;101902.34;5041914;28;20448;-81
2023/01/23 03:16:51;;;;;;;1.85;1.00;;;;;;;9.36;100.00;101894.53;5044623;28;20028;-81
2023/01/23 03:19:24;;;;;;;2.40;0.95;;;;;;;9.39;100.00;101905.75;5034529;28;20036;-81
2023/01/23 03:21:50;;;;;;;1.77;0.95;;;;;;;9.38;100.00;101905.84;5024847;28;20033;-81
2023/01/23 03:24:16;;;;;;;1.83;0.80;;;;;;;9.38;100.00;101903.19;5042423;28;20032;-81
2023/01/23 03:26:44;;;;;;;2.05;0.90;;;;;;;9.42;100.00;101907.31;5052526;28;20032;-81
2023/01/23 03:32:10;;;;;;;1.58;1.10;;;;;;;9.37;100.00;101893.56;5049485;28;20386;-81
2023/01/23 03:34:36;;;;;;;1.50;1.20;;;;;;;9.36;100.00;101894.53;5013154;28;20516;-81
2023/01/23 03:37:03;;;;;;;1.85;0.98;;;;;;;9.35;100.00;101891.03;5059707;28;20508;-81
2023/01/23 03:42:17;;;;;;;1.00;0.90;;;;;;;9.35;100.00;101898.94;5050310;28;20090;-81
2023/01/23 03:44:44;;;;;;;2.75;1.05;;;;;;;9.34;100.00;101896.41;5055388;28;20561;-81
2023/01/23 03:47:10;;;;;;;1.50;0.93;;;;;;;9.35;100.00;101896.31;5041178;28;20032;-81
2023/01/23 03:49:38;;;;;;;1.20;1.10;;;;;;;9.33;100.00;101900.00;5049396;28;20040;-80
2023/01/23 03:52:04;;;;;;;1.63;0.90;;;;;;;9.33;100.00;101898.22;5042062;28;20040;-80
2023/01/23 03:54:30;;;;;;;0.75;0.75;;;;;;;9.34;100.00;101905.19;5032187;28;20535;-80
2023/01/23 03:56:56;;;;;;;1.10;0.93;;;;;;;9.34;100.00;101901.69;5052928;28;20035;-80
2023/01/23 03:59:58;;;;;;;0.80;0.80;;;;;;;9.30;100.00;101899.25;5049015;28;20507;-79
2023/01/23 04:02:28;;;;;;;1.00;0.90;;;;;;;9.31;100.00;101900.09;5075645;28;20093;-80
2023/01/23 04:04:54;;;;;;;0.90;0.90;;;;;;;9.33;100.00;101894.72;5050393;28;20096;-79
2023/01/23 04:07:20;;;;;;;1.45;0.90;;;;;;;9.31;100.00;101905.38;5009858;28;20068;-80
2023/01/23 04:09:46;;;;;;;2.33;0.85;;;;;;;9.31;100.00;101897.47;5049495;28;20040;-80
2023/01/23 04:12:13;;;;;;;1.20;1.10;;;;;;;9.31;100.00;101897.47;5055116;28;20031;-80
2023/01/23 04:14:42;;;;;;;2.50;1.15;;;;;;;9.30;100.00;101891.34;5053765;28;20029;-80
2023/01/23 04:17:09;;;;;;;1.40;0.98;;;;;;;9.31;100.00;101894.84;5050715;28;20032;-80
2023/01/23 04:19:36;;;;;;;1.20;1.10;;;;;;;9.32;100.00;101898.31;5051948;28;20586;-80
2023/01/23 04:22:03;;;;;;;1.50;1.00;;;;;;;9.31;100.00;101913.31;5037471;28;20181;-80
2023/01/23 04:24:34;;;;;;;2.70;1.08;;;;;;;9.32;100.00;101912.34;5037024;28;20040;-80
2023/01/23 04:27:00;;;;;;;0.80;0.80;;;;;;;9.32;100.00;101901.78;5056091;28;20028;-80
2023/01/23 04:29:27;;;;;;;1.10;1.00;;;;;;;9.33;100.00;101906.16;5060622;28;20032;-80
2023/01/23 04:31:53;;;;;;;1.02;0.80;;;;;;;9.33;100.00;101913.19;5052633;28;20096;-80
2023/01/23 04:34:19;;;;;;;2.28;0.90;;;;;;;9.32;100.00;101903.59;5029151;28;20048;-80
2023/01/23 04:36:46;;;;;;;1.50;0.90;;;;;;;9.31;100.00;101900.09;5067707;28;20058;-80
2023/01/23 04:39:12;;;;;;;1.40;1.05;;;;;;;9.32;100.00;101911.53;5049732;28;20040;-80
2023/01/23 04:41:41;;;;;;;1.10;1.10;;;;;;;9.30;100.00;101901.06;5038605;28;20043;-80
2023/01/23 04:44:19;;;;;;;1.58;0.88;;;;;;;9.29;100.00;101896.72;5011516;28;20048;-80
2023/01/23 04:46:54;;;;;;;1.23;1.00;;;;;;;9.27;100.00;101896.81;5062561;28;20068;-80
2023/01/23 04:49:22;;;;;;;1.17;1.08;;;;;;;9.30;100.00;101899.25;5069269;28;20040;-80
2023/01/23 04:51:49;;;;;;;1.67;1.17;;;;;;;9.31;100.00;101905.38;5063357;28;20039;-80
2023/01/23 04:54:18;;;;;;;0.90;0.90;;;;;;;9.29;100.00;101909.91;5057995;28;20068;-80
2023/01/23 04:56:44;;;;;;;1.10;1.05;;;;;;;9.30;100.00;101906.34;5029491;28;20032;-80
2023/01/23 04:59:11;;;;;;;1.20;1.10;;;;;;;9.27;100.00;101907.38;5025172;28;20027;-80
2023/01/23 05:01:37;;;;;;;1.20;1.10;;;;;;;9.27;100.00;101911.81;5042454;28;20812;-80
2023/01/23 05:04:03;;;;;;;2.47;1.00;;;;;;;9.25;100.00;101911.88;5060737;28;20073;-80
2023/01/23 05:06:30;;;;;;;1.00;1.00;;;;;;;9.26;100.00;101913.59;5041215;28;20500;-80
2023/01/23 05:08:57;;;;;;;1.48;0.80;;;;;;;9.24;100.00;101922.53;5053709;28;20037;-80
2023/01/23 05:11:35;;;;;;;2.50;1.20;;;;;;;9.24;100.00;101928.69;5046951;28;20798;-80
2023/01/23 05:14:01;;;;;;;0.90;0.90;;;;;;;9.24;100.00;101927.81;5065691;28;20087;-80
2023/01/23 05:16:29;;;;;;;0.90;0.90;;;;;;;9.24;100.00;101933.09;5068074;28;20082;-80
2023/01/23 05:19:13;;;;;;;1.23;1.00;;;;;;;9.26;100.00;101933.84;5077927;28;20076;-80
2023/01/23 05:21:40;;;;;;;1.88;0.80;;;;;;;9.24;100.00;101931.31;5067829;28;20055;-81
2023/01/23 05:24:09;;;;;;;1.48;1.00;;;;;;;9.25;100.00;101938.28;5021355;28;20084;-81
2023/01/23 05:26:36;;;;;;;1.20;1.13;;;;;;;9.27;100.00;101938.22;5043538;28;20040;-80
2023/01/23 05:29:02;;;;;;;3.00;1.20;;;;;;;9.29;100.00;101947.69;5035823;28;20043;-81
2023/01/23 05:31:28;;;;;;;1.10;1.00;;;;;;;9.30;100.00;101944.13;5070170;28;20489;-80
2023/01/23 05:34:26;;;;;;;1.30;1.00;;;;;;;9.32;100.00;101946.66;4996188;28;20060;-80
2023/01/23 05:36:52;;;;;;;1.25;1.20;;;;;;;9.34;100.00;101949.19;5038421;28;20511;-81
2023/01/23 05:39:18;;;;;;;1.30;1.20;;;;;;;9.36;100.00;101958.72;5055990;28;20098;-80
2023/01/23 05:41:43;;;;;;;1.55;1.23;;;;;;;9.36;100.00;101964.00;5053842;28;20033;-81
2023/01/23 05:44:24;;;;;;;1.30;1.25;;;;;;;9.39;100.00;101970.84;5033978;28;20094;-81
2023/01/23 05:46:54;;;;;;;1.17;1.15;;;;;;;9.41;100.00;101975.09;5034032;28;20052;-81
2023/01/23 05:49:20;;;;;;;1.23;1.13;;;;;;;9.43;100.00;101969.69;5030046;28;20064;-80
2023/01/23 05:51:46;;;;;;;1.45;0.90;;;;;;;9.42;100.00;101968.03;5059739;28;20123;-80
2023/01/23 05:54:12;;;;;;;1.67;0.85;;;;;;;9.38;100.00;101958.63;5043888;28;20032;-81
2023/01/23 05:56:42;;;;;;;1.40;0.82;;;;;;;9.37;100.00;101956.91;5036271;28;20033;-80
2023/01/23 05:59:26;;;;;;;2.53;1.00;;;;;;;9.32;100.00;101949.28;5062467;28;20032;-80
2023/01/23 06:02:10;;;;;;;2.17;1.15;;;;;;;9.30;100.00;101949.38;5030259;28;20071;-81
2023/01/23 06:04:55;;;;;;;1.52;1.13;;;;;;;9.29;100.00;101942.44;5067966;28;20495;-81
2023/01/23 06:07:28;;;;;;;3.10;1.35;;;;;;;9.29;100.00;101926.59;5041589;28;20435;-81
2023/01/23 06:09:56;;;;;;;1.92;1.38;;;;;;;9.28;100.00;101926.69;5032564;28;20056;-80
2023/01/23 06:12:22;;;;;;;1.67;1.15;;;;;;;9.27;100.00;101925.00;5041419;28;20060;-81
2023/01/23 06:14:48;;;;;;;1.38;1.27;;;;;;;9.26;100.00;101920.66;5067027;28;20384;-80
2023/01/23 06:17:14;;;;;;;1.60;1.50;;;;;;;9.27;100.00;101931.13;5047225;28;20059;-80
2023/01/23 06:19:41;;;;;;;1.27;1.17;;;;;;;9.27;100.00;101927.66;5052679;28;20032;-80
2023/01/23 06:22:07;;;;;;;2.50;1.70;;;;;;;9.27;100.00;101925.84;5060706;28;20385;-81
2023/01/23 06:24:47;;;;;;;3.65;1.90;;;;;;;9.24;100.00;101931.31;5049308;28;20048;-81
2023/01/23 06:27:13;;;;;;;1.98;1.40;;;;;;;9.27;100.00;101935.56;5032333;28;20089;-80
2023/01/23 06:29:38;;;;;;;1.70;1.58;;;;;;;9.29;100.00;101938.94;5048640;28;20032;-80
2023/01/23 06:32:04;;;;;;;2.47;1.80;;;;;;;9.29;100.00;101937.16;5039729;28;20503;-80
2023/01/23 06:34:31;;;;;;;2.60;1.88;;;;;;;9.31;100.00;101942.34;5027928;28;20033;-80
2023/01/23 06:37:01;;;;;;;3.17;2.00;;;;;;;9.32;100.00;101944.00;5067346;28;20495;-80
2023/01/23 06:39:29;;;;;;;5.28;2.33;;;;;;;9.35;100.00;101948.25;5037535;28;20029;-80
2023/01/23 06:41:55;;;;;;;2.60;2.03;;;;;;;9.36;100.00;101945.53;5032217;28;20028;-81
2023/01/23 06:44:22;;;;;;;4.25;2.35;;;;;;;9.38;100.00;101946.25;5031198;28;20433;-81
2023/01/23 06:46:48;;;;;;;4.07;2.55;;;;;;;9.37;100.00;101943.72;5017461;28;20400;-80
2023/01/23 06:49:14;;;;;;;22.80;3.05;;;;;;;9.35;100.00;101941.16;5045795;28;20033;-82
2023/01/23 06:51:40;;;;;;;14.00;3.00;;;;;;;9.34;100.00;101943.91;5051928;28;20029;-83
2023/01/23 06:54:08;;;;;;;8.30;3.28;;;;;;;9.35;100.00;101945.63;5040598;28;20037;-80
2023/01/23 06:56:34;;;;;;;3.83;2.70;;;;;;;9.37;100.00;101949.00;5017030;28;20038;-80
2023/01/23 06:59:03;;;;;;;6.97;3.58;;;;;;;9.36;100.00;101957.88;5044228;28;20439;-80
2023/01/23 07:01:31;;;;;;;4.18;2.50;;;;;;;9.36;100.00;101963.13;5041911;28;20222;-80
2023/01/23 07:04:16;;;;;;;3.65;2.65;;;;;;;9.35;100.00;101966.75;5067193;28;20373;-80
2023/01/23 07:06:43;;;;;;;2.72;2.45;;;;;;;9.35;100.00;101975.47;5052312;28;20381;-80
2023/01/23 07:09:11;;;;;;;2.75;2.55;;;;;;;9.34;100.00;101965.88;5051707;28;20032;-80
2023/01/23 07:11:38;;;;;;;2.92;2.45;;;;;;;9.34;100.00;101971.16;5018400;28;20079;-80
2023/01/23 07:14:05;;;;;;;2.80;2.50;;;;;;;9.33;100.00;101979.19;5057378;28;20040;-80
2023/01/23 07:16:33;;;;;;;5.13;2.97;;;;;;;9.33;100.00;101976.53;5023048;28;20048;-81
2023/01/23 07:19:00;;;;;;;2.40;2.20;;;;;;;9.32;100.00;101972.22;5039805;28;20041;-80
2023/01/23 07:21:30;;;;;;;2.85;2.42;;;;;;;9.30;100.00;101981.06;5035069;28;20101;-80
2023/01/23 07:23:55;;;;;;;4.57;2.17;;;;;;;9.30;100.00;101990.78;5062340;28;20072;-81
2023/01/23 07:26:21;;;;;;;2.88;2.13;;;;;;;9.29;100.00;101989.06;5044214;28;20496;-80
2023/01/23 07:28:47;;;;;;;2.45;2.25;;;;;;;9.28;100.00;101988.25;5037144;28;20037;-80
2023/01/23 07:31:13;;;;;;;2.50;2.20;;;;;;;9.29;100.00;101999.63;5035078;28;20040;-80
2023/01/23 07:33:38;;;;;;;3.05;2.50;;;;;;;9.30;100.00;102001.34;5048444;28;20086;-80
2023/01/23 07:36:08;;;;;;;13.30;2.35;;;;;;;9.33;100.00;102011.69;5015583;28;20045;-80
2023/01/23 07:38:34;;;;;;;7.55;2.40;;;;;;;9.31;100.00;102013.56;5031363;28;20082;-80
2023/01/23 07:41:00;;;;;;;2.67;2.17;;;;;;;9.34;100.00;102028.34;5047135;28;20039;-80
2023/01/23 07:43:26;;;;;;;2.28;2.08;;;;;;;9.35;100.00;102032.72;5027881;28;20041;-82
2023/01/23 07:45:52;;;;;;;6.15;2.40;;;;;;;9.37;100.00;102038.72;5042790;28;20823;-82
2023/01/23 07:48:18;;;;;;;2.65;2.08;;;;;;;9.37;100.00;102036.94;5030632;28;20052;-80
2023/01/23 07:50:44;;;;;;;20.45;2.33;;;;;;;9.39;100.00;102034.19;5014400;28;20629;-80
2023/01/23 07:53:09;;;;;;;4.25;2.35;;;;;;;9.42;100.00;102044.56;5030427;28;20487;-81
2023/01/23 07:55:37;;;;;;;7.40;2.38;;;;;;;9.39;100.00;102048.25;5051969;28;21176;-80
2023/01/23 07:58:03;;;;;;;2.75;2.45;;;;;;;9.35;100.00;102046.72;5063400;28;20036;-80
2023/01/23 08:00:29;;;;;;;2.88;2.40;;;;;;;9.36;100.00;102051.09;5055964;28;20048;-80
2023/01/23 08:02:55;;;;;;;6.90;3.75;;;;;;;9.39;100.00;102047.41;5039906;28;20040;-80
2023/01/23 08:05:21;;;;;;;10.07;4.68;;;;;;;9.38;100.00;102051.81;5028297;28;20033;-80
2023/01/23 08:07:46;;;;;;;7.53;3.53;;;;;;;9.37;100.00;102057.19;5073115;28;20651;-80
2023/01/23 08:10:12;;;;;;;7.82;3.80;;;;;;;9.38;100.00;102066.81;5039043;28;20040;-80
2023/01/23 08:12:38;;;;;;;9.38;3.67;;;;;;;9.39;100.00;102069.38;5063643;28;20064;-80
2023/01/23 08:15:05;;;;;;;18.65;4.20;;;;;;;9.43;100.00;102070.00;5048084;28;20416;-80
2023/01/23 08:17:31;;;;;;;5.10;3.58;;;;;;;9.46;100.00;102075.06;5030504;28;20042;-80
2023/01/23 08:19:56;;;;;;;5.20;3.80;;;;;;;9.48;100.00;102077.63;5033131;28;20040;-80
2023/01/23 08:22:22;;;;;;;19.88;13.57;;;;;;;9.48;100.00;102081.13;5067357;28;20064;-80
2023/01/23 08:24:48;;;;;;;83.25;15.93;;;;;;;9.50;100.00;102081.88;5037503;28;20034;-80
2023/01/23 08:27:14;;;;;;;14.38;11.52;;;;;;;9.52;100.00;102087.06;5037748;28;20082;-80
2023/01/23 08:29:39;;;;;;;5.57;4.28;;;;;;;9.52;100.00;102087.06;5040457;28;20079;-80
2023/01/23 08:32:05;;;;;;;18.45;4.70;;;;;;;9.51;100.00;102098.53;5043039;28;20560;-80
2023/01/23 08:34:31;;;;;;;7.07;5.20;;;;;;;9.52;100.00;102094.97;5010640;28;20507;-80
2023/01/23 08:36:57;;;;;;;5.78;4.53;;;;;;;9.54;100.00;102096.56;5050874;28;20041;-80
2023/01/23 08:39:23;;;;;;;10.02;5.00;;;;;;;9.51;100.00;102106.47;5011846;28;20029;-80
2023/01/23 08:41:49;;;;;;;34.25;5.20;;;;;;;9.50;100.00;102103.00;5031625;28;20036;-80
2023/01/23 08:44:15;;;;;;;46.90;5.90;;;;;;;9.50;100.00;102105.63;5007620;28;20460;-80
2023/01/23 08:46:42;;;;;;;63.20;5.70;;;;;;;9.49;100.00;102108.38;5035201;28;20166;-80
2023/01/23 08:49:08;;;;;;;85.40;6.50;;;;;;;9.49;100.00;102109.19;5019199;28;20025;-80
2023/01/23 08:51:34;;;;;;;41.00;6.30;;;;;;;9.48;100.00;102111.94;4993523;28;20474;-80
2023/01/23 08:54:00;;;;;;;30.83;7.20;;;;;;;9.47;100.00;102113.75;5002637;28;20033;-80
2023/01/23 08:56:25;;;;;;;21.08;10.75;;;;;;;9.48;100.00;102111.94;5040634;28;20100;-80
2023/01/23 08:58:51;;;;;;;21.00;10.82;;;;;;;9.49;100.00;102113.66;5011852;28;20127;-80
2023/01/23 09:01:23;;;;;;;98.82;68.35;;;;;;;9.54;100.00;102127.38;5044199;28;20068;-79
2023/01/23 09:03:49;;;;;;;84.15;60.45;;;;;;;9.55;100.00;102122.03;5007775;28;20067;-81
2023/01/23 09:06:17;;;;;;;22.50;13.02;;;;;;;9.55;100.00;102122.03;5032264;28;20048;-81
2023/01/23 09:08:44;;;;;;;18.65;13.43;;;;;;;9.57;100.00;102126.38;5012836;28;20556;-81
2023/01/23 09:11:11;;;;;;;32.17;24.02;;;;;;;9.58;100.00;102131.56;5033877;28;20031;-81
2023/01/23 09:13:37;;;;;;;29.17;16.25;;;;;;;9.59;100.00;102125.31;4999906;28;20041;-79
2023/01/23 09:16:04;;;;;;;20.45;12.60;;;;;;;9.62;100.00;102129.56;5026873;28;20060;-79
2023/01/23 09:18:30;;;;;;;13.68;8.38;;;;;;;9.61;100.00;102127.88;5041138;28;20041;-79
2023/01/23 09:20:56;;;;;;;9.20;5.88;;;;;;;9.62;100.00;102126.94;5012116;28;20033;-79
2023/01/23 09:23:23;;;;;;;8.98;4.43;;;;;;;9.61;100.00;102134.00;5026326;28;20091;-79
2023/01/23 09:25:48;;;;;;;8.07;4.93;;;;;;;9.58;100.00;102130.69;5025967;28;20041;-80
2023/01/23 09:28:14;;;;;;;10.10;4.93;;;;;;;9.57;100.00;102129.88;5035725;28;20045;-80
2023/01/23 09:30:40;;;;;;;8.15;4.63;;;;;;;9.55;100.00;102134.38;5040989;28;20040;-79
2023/01/23 09:33:06;;;;;;;11.05;4.65;;;;;;;9.53;100.00;102131.84;5035752;28;20076;-79
2023/01/23 09:35:33;;;;;;;10.30;4.53;;;;;;;9.52;100.00;102130.13;5029024;28;20033;-79
2023/01/23 09:37:59;;;;;;;11.35;4.88;;;;;;;9.50;100.00;102129.41;5021734;28;20154;-79
2023/01/23 09:40:34;;;;;;;11.82;4.38;;;;;;;9.50;100.00;102129.41;5029002;28;20040;-79
2023/01/23 09:43:31;;;;;;;9.88;4.00;;;;;;;9.49;100.00;102127.69;5022989;28;20028;-79
2023/01/23 09:46:09;;;;;;;10.80;3.78;;;;;;;9.43;100.00;102123.63;5023052;28;20448;-79
2023/01/23 09:48:43;;;;;;;5.40;3.25;;;;;;;9.45;100.00;102115.63;5043285;28;20069;-79
2023/01/23 09:51:41;;;;;;;5.10;3.25;;;;;;;9.44;100.00;102119.22;5044476;28;20087;-79
2023/01/23 09:54:31;;;;;;;5.03;3.03;;;;;;;9.41;100.00;102125.50;5008151;28;20055;-79
2023/01/23 09:57:02;;;;;;;7.18;2.85;;;;;;;9.39;100.00;102123.94;5030805;28;20416;-79
2023/01/23 09:59:35;;;;;;;6.55;3.10;;;;;;;9.39;100.00;102127.44;5050851;28;20052;-79
2023/01/23 10:02:01;;;;;;;7.68;3.15;;;;;;;9.39;100.00;102126.56;5031290;28;20037;-79
2023/01/23 10:04:28;;;;;;;7.20;2.50;;;;;;;9.40;100.00;102136.16;5016330;28;20374;-79
2023/01/23 10:07:03;;;;;;;9.38;2.83;;;;;;;9.45;100.00;102134.09;5033122;28;20518;-79
2023/01/23 10:09:29;;;;;;;17.17;2.90;;;;;;;9.41;100.00;102132.59;5047679;28;20040;-81
2023/01/23 10:12:07;;;;;;;5.20;2.10;;;;;;;9.46;100.00;102135.78;5033448;28;20112;-81
2023/01/23 10:14:56;;;;;;;5.63;2.00;;;;;;;9.46;100.00;102138.44;4998130;28;20040;-79
2023/01/23 10:17:40;;;;;;;6.20;2.28;;;;;;;9.41;100.00;102138.72;5032615;28;20136;-79
2023/01/23 10:20:29;;;;;;;4.55;2.30;;;;;;;9.43;100.00;102134.19;5040576;28;20115;-79
2023/01/23 10:23:01;;;;;;;4.55;2.25;;;;;;;9.37;100.00;102139.00;5033051;28;20148;-79
2023/01/23 10:25:31;;;;;;;4.20;2.05;;;;;;;9.39;100.00;102140.63;5047389;28;20048;-81
2023/01/23 10:28:15;;;;;;;7.15;2.03;;;;;;;9.43;100.00;102149.19;5064674;28;20040;-81
2023/01/23 10:30:46;;;;;;;5.35;2.42;;;;;;;9.42;100.00;102151.00;5066870;28;20037;-79
2023/01/23 10:33:15;;;;;;;5.68;2.42;;;;;;;9.50;100.00;102161.06;5045672;28;20489;-80
2023/01/23 10:35:50;;;;;;;5.47;2.78;;;;;;;9.58;100.00;102157.09;5048927;28;20036;-78
2023/01/23 10:38:29;;;;;;;;;;;;;;;9.50;100.00;102160.22;5032132;28;20480;-79
2023/01/23 10:41:18;;;;;;;6.82;4.55;;;;;;;9.53;100.00;102163.53;5043812;28;19938;-79
2023/01/23 10:43:53;;;;;;;4.53;2.85;;;;;;;9.51;100.00;102157.47;5038799;28;20040;-79
2023/01/23 10:46:26;;;;;;;6.78;3.80;;;;;;;9.52;100.00;102166.25;5053198;28;20036;-79
2023/01/23 10:48:53;;;;;;;8.10;4.00;;;;;;;9.51;100.00;102165.41;5062030;28;20039;-79
2023/01/23 10:51:47;;;;;;;6.70;3.83;;;;;;;9.53;100.00;102163.53;5063872;28;20085;-79
2023/01/23 10:54:26;;;;;;;6.57;4.45;;;;;;;9.50;100.00;102166.34;5033748;28;20062;-80
2023/01/23 10:56:56;;;;;;;5.72;3.97;;;;;;;9.58;100.00;102170.28;5021189;28;20040;-80
2023/01/23 10:59:35;;;;;;;6.38;4.22;;;;;;;9.61;100.00;102163.03;5058221;28;20063;-81
2023/01/23 11:02:32;;;;;;;8.15;4.57;;;;;;;9.63;100.00;102168.22;5061326;28;20025;-81
2023/01/23 11:04:58;;;;;;;8.10;4.13;;;;;;;9.60;100.00;102158.72;5027240;28;20047;-80
2023/01/23 11:07:30;;;;;;;4.22;3.38;;;;;;;9.65;100.00;102161.06;5067875;28;20044;-80
2023/01/23 11:10:08;;;;;;;3.50;3.20;;;;;;;9.66;100.00;102165.41;5030358;28;20044;-81
2023/01/23 11:12:46;;;;;;;2.63;2.05;;;;;;;9.66;100.00;102168.03;5061328;28;20037;-81
2023/01/23 11:15:32;;;;;;;2.78;2.10;;;;;;;9.66;100.00;102165.41;5058344;28;20044;-81
2023/01/23 11:17:59;;;;;;;3.67;3.30;;;;;;;9.64;100.00;102170.78;5065213;28;20059;-82
2023/01/23 11:20:39;;;;;;;4.35;3.28;;;;;;;9.67;100.00;102162.66;5037094;28;20378;-82
2023/01/23 11:23:09;;;;;;;4.00;3.40;;;;;;;9.69;100.00;102162.56;5051405;28;20056;-81
2023/01/23 11:25:41;;;;;;;4.07;2.53;;;;;;;9.71;100.00;102157.19;5063860;28;20090;-81
2023/01/23 11:28:25;;;;;;;4.68;2.97;;;;;;;9.74;100.00;102170.19;5044242;28;20041;-81
2023/01/23 11:31:02;;;;;;;2.72;2.30;;;;;;;9.77;100.00;102160.28;5045982;28;20473;-80
2023/01/23 11:33:51;;;;;;;3.53;2.90;;;;;;;9.74;100.00;102165.78;5034190;28;20404;-80
2023/01/23 11:36:16;;;;;;;5.43;2.70;;;;;;;9.69;100.00;102165.19;5020688;28;20095;-80
2023/01/23 11:38:44;;;;;;;3.83;2.22;;;;;;;9.72;100.00;102165.00;5041789;28;20040;-80
2023/01/23 11:41:12;;;;;;;4.13;2.45;;;;;;;9.74;100.00;102162.28;5038921;28;20032;-80
2023/01/23 11:43:39;;;;;;;6.13;2.28;;;;;;;9.79;100.00;102166.31;5052887;28;20068;-81